Waskesiu Lake, Canada
Current Conditions -  °F | °C
As of 7:00 PM on Saturday 25 Oct 2014 (Local Time) from CYPA Reporting Station
Broken Clouds Broken Clouds  
Wind Chill: -3°   Ceiling: 25000
Heat Index:   Visibility: 15mi
Dew Point: -2°   Wind: 6mph
Humidity: 87%   Direction: 80°E
Pressure: 29.92"   Gusts: NA
Location:  53.92°N, 106.08°W
Report Text: CYPA 260100Z 08005KT 15SM FEW140 BKN250 M00/M02 A2992 RMK AC2CI4 SLP155
Loading
Personal Weather Stations






























Interactive Weather Map
Tropical Storm Tracking
New forecast layout! Learn more

10-Day Weather Forecast

Advertisements
Track Severe Weather on mobile